Terminal Aerodrome Forecast
Issued by NWS Twin Cities, MN

Home | Current Version | Previous Version | Graphics & Text | Print | Product List | Glossary Off
Versions: 1 2 3 4 5 6 7 8 9 10 11 12 13 14 15

690
FTUS43 KMPX 131739
TAFSTC
TAF
KSTC 131739Z 1318/1418 15006KT P6SM SCT250
     FM140000 14008KT P6SM OVC100
     FM140800 14011KT 2SM -SN BKN025 OVC040
     FM141200 13011KT 6SM -SN OVC020=

USA.gov is the U.S. government's official web portal to all federal, state and local government web resources and services.